Time;durP1;ratioP1;P1;durP2;ratioP2;P2;SDS_P1;SDS_P2;PMS_P1;PMS_P2;Temp;Humidity;BMP_temperature;BMP_pressure;BME280_temperature;BME280_humidity;BME280_pressure;Samples;Min_cycle;Max_cycle;Signal;HPM_P1;HPM_P2
2022/06/05 00:00:22;;;;;;;15.20;11.65;;;16.80;99.90;;;;;;5031357;28;20060;-85
2022/06/05 00:03:05;;;;;;;16.63;11.52;;;16.70;99.90;;;;;;5040221;28;20029;-85
2022/06/05 00:05:34;;;;;;;22.75;12.60;;;16.80;99.90;;;;;;5039788;28;20029;-85
2022/06/05 00:08:21;;;;;;;18.60;12.77;;;16.70;99.90;;;;;;5040313;28;20041;-85
2022/06/05 00:10:52;;;;;;;17.52;12.52;;;16.70;99.90;;;;;;5038060;28;20048;-85
2022/06/05 00:13:37;;;;;;;15.25;11.55;;;16.80;99.90;;;;;;5040054;28;20029;-85
2022/06/05 00:16:04;;;;;;;20.13;12.05;;;16.70;99.90;;;;;;5031056;28;20087;-86
2022/06/05 00:18:35;;;;;;;17.75;12.43;;;16.70;99.90;;;;;;5035028;28;20033;-84
2022/06/05 00:21:00;;;;;;;17.92;12.93;;;16.70;99.90;;;;;;5028274;28;20468;-85
2022/06/05 00:23:26;;;;;;;18.52;13.00;;;16.60;99.90;;;;;;5032240;28;20030;-85
2022/06/05 00:26:01;;;;;;;21.10;13.25;;;16.70;99.90;;;;;;5028868;28;20488;-85
2022/06/05 00:29:01;;;;;;;28.13;13.52;;;16.70;99.90;;;;;;5028235;28;20026;-85
2022/06/05 00:31:39;;;;;;;19.33;13.90;;;16.60;99.90;;;;;;5025168;28;20526;-86
2022/06/05 00:34:05;;;;;;;20.05;14.02;;;16.50;99.90;;;;;;5041296;28;20028;-85
2022/06/05 00:37:12;;;;;;;22.98;14.60;;;16.50;99.90;;;;;;5040090;28;20033;-85
2022/06/05 00:39:53;;;;;;;18.63;13.48;;;16.50;99.90;;;;;;5029575;28;20073;-85
2022/06/05 00:42:21;;;;;;;;;;;16.40;99.90;;;;;;5037564;28;20025;-86
2022/06/05 00:44:56;;;;;;;19.85;14.63;;;16.40;99.90;;;;;;5034295;28;19969;-86
2022/06/05 00:47:27;;;;;;;20.42;14.20;;;16.40;99.90;;;;;;5022893;28;20615;-85
2022/06/05 00:50:14;;;;;;;20.23;15.70;;;16.40;99.90;;;;;;5031401;28;20757;-85
2022/06/05 00:52:43;;;;;;;22.90;16.38;;;16.30;99.90;;;;;;5045003;28;20018;-86
2022/06/05 00:55:10;;;;;;;22.65;15.55;;;16.20;99.90;;;;;;5032938;28;20134;-86
2022/06/05 00:57:37;;;;;;;19.95;15.15;;;16.30;99.90;;;;;;5027198;28;20033;-86
2022/06/05 01:00:13;;;;;;;22.83;16.23;;;16.20;99.90;;;;;;5030651;28;20088;-85
2022/06/05 01:02:42;;;;;;;24.20;17.80;;;16.10;99.90;;;;;;5061583;28;20038;-87
2022/06/05 01:05:09;;;;;;;24.40;16.38;;;16.20;99.90;;;;;;5034077;28;20026;-86
2022/06/05 01:07:35;;;;;;;22.35;16.48;;;16.20;99.90;;;;;;5041730;28;20484;-85
2022/06/05 01:10:02;;;;;;;21.55;15.40;;;16.30;99.90;;;;;;5038602;28;20060;-86
2022/06/05 01:13:04;;;;;;;22.15;14.73;;;16.30;99.90;;;;;;5037227;28;20530;-84
2022/06/05 01:15:35;;;;;;;26.17;17.52;;;16.30;99.90;;;;;;5031274;28;20472;-85
2022/06/05 01:18:22;;;;;;;23.02;17.08;;;16.10;99.90;;;;;;5029500;28;20033;-84
2022/06/05 01:21:04;;;;;;;28.80;18.88;;;16.20;99.90;;;;;;5031789;28;20036;-86
2022/06/05 01:24:00;;;;;;;32.95;19.30;;;16.20;99.90;;;;;;5027890;28;20079;-86
2022/06/05 01:26:43;;;;;;;37.78;19.48;;;16.10;99.90;;;;;;5028891;28;20098;-86
2022/06/05 01:29:42;;;;;;;32.90;21.30;;;16.10;99.90;;;;;;5055941;28;20029;-86
2022/06/05 01:32:08;;;;;;;33.92;22.20;;;16.00;99.90;;;;;;5033769;28;20034;-86
2022/06/05 01:34:36;;;;;;;31.98;20.98;;;15.90;99.90;;;;;;5039020;28;20025;-86
2022/06/05 01:37:02;;;;;;;35.00;22.63;;;15.90;99.90;;;;;;5039822;28;20443;-86
2022/06/05 01:39:48;;;;;;;34.53;23.50;;;15.90;99.90;;;;;;5038778;28;20086;-86
2022/06/05 01:42:30;;;;;;;37.13;23.55;;;15.80;99.90;;;;;;5036442;28;20101;-86
2022/06/05 01:45:00;;;;;;;38.67;22.35;;;15.80;99.90;;;;;;5031303;28;20038;-85
2022/06/05 01:47:33;;;;;;;37.72;24.95;;;15.80;99.90;;;;;;5034068;28;20048;-86
2022/06/05 01:50:06;;;;;;;41.47;23.98;;;15.70;99.90;;;;;;5034180;28;20025;-86
2022/06/05 01:52:48;;;;;;;37.95;23.90;;;15.70;99.90;;;;;;5028901;28;20027;-86
2022/06/05 01:55:29;;;;;;;40.40;25.13;;;15.60;99.90;;;;;;5025749;28;20034;-86
2022/06/05 01:57:59;;;;;;;43.42;26.17;;;15.60;99.90;;;;;;5022136;28;20065;-86
2022/06/05 02:00:25;;;;;;;41.63;26.08;;;15.60;99.90;;;;;;5007431;28;20065;-86
2022/06/05 02:03:03;;;;;;;41.70;24.58;;;15.60;99.90;;;;;;5029389;28;20029;-86
2022/06/05 02:05:38;;;;;;;44.63;25.75;;;15.60;99.90;;;;;;5037072;28;20122;-86
2022/06/05 02:08:15;;;;;;;38.63;24.88;;;15.60;99.90;;;;;;5038680;28;20037;-86
2022/06/05 02:10:51;;;;;;;43.92;26.02;;;15.60;99.90;;;;;;5035118;28;20527;-86
2022/06/05 02:13:17;;;;;;;44.42;26.45;;;15.70;99.90;;;;;;5036774;28;20216;-86
2022/06/05 02:15:43;;;;;;;39.35;24.13;;;15.70;99.90;;;;;;5032935;28;20099;-86
2022/06/05 02:18:10;;;;;;;46.85;28.58;;;15.70;99.90;;;;;;5033035;28;20481;-85
2022/06/05 02:20:36;;;;;;;46.53;25.75;;;15.70;99.90;;;;;;5047873;28;20131;-86
2022/06/05 02:23:04;;;;;;;44.75;27.33;;;15.70;99.90;;;;;;5030150;28;20578;-86
2022/06/05 02:25:31;;;;;;;45.50;27.77;;;15.60;99.90;;;;;;5027562;28;20059;-86
2022/06/05 02:28:01;;;;;;;51.20;29.40;;;15.60;99.90;;;;;;5009332;28;20080;-86
2022/06/05 02:31:18;;;;;;;50.38;27.65;;;15.50;99.90;;;;;;5026705;28;20025;-87
2022/06/05 02:34:07;;;;;;;45.47;27.52;;;15.50;99.90;;;;;;5021610;28;20057;-86
2022/06/05 02:36:42;;;;;;;47.80;26.33;;;15.50;99.90;;;;;;5074221;28;20033;-86
2022/06/05 02:39:35;;;;;;;50.92;30.75;;;15.50;99.90;;;;;;5042256;28;20118;-85
2022/06/05 02:42:19;;;;;;;56.22;30.83;;;15.50;99.90;;;;;;5041218;28;20041;-87
2022/06/05 02:44:55;;;;;;;54.55;30.55;;;15.50;99.90;;;;;;5035333;28;20033;-86
2022/06/05 02:47:31;;;;;;;55.15;30.98;;;15.40;99.90;;;;;;5035287;28;20024;-87
2022/06/05 02:50:08;;;;;;;44.90;28.27;;;15.50;99.90;;;;;;5048892;28;20511;-87
2022/06/05 02:52:35;;;;;;;52.20;28.83;;;15.50;99.90;;;;;;5030232;28;20025;-85
2022/06/05 02:55:13;;;;;;;58.88;31.63;;;15.50;99.90;;;;;;5031190;28;20639;-86
2022/06/05 02:57:40;;;;;;;47.58;28.30;;;15.60;99.90;;;;;;5028477;28;20038;-86
2022/06/05 03:00:35;;;;;;;46.20;28.80;;;15.50;99.90;;;;;;5028788;28;20538;-86
2022/06/05 03:05:45;;;;;;;56.17;29.95;;;15.60;99.90;;;;;;5041658;28;20032;-87
2022/06/05 03:08:14;;;;;;;53.33;29.33;;;15.60;99.90;;;;;;5038232;28;20120;-86
2022/06/05 03:10:41;;;;;;;45.53;27.05;;;15.50;99.90;;;;;;5039824;28;20025;-86
2022/06/05 03:13:07;;;;;;;57.50;30.80;;;15.50;99.90;;;;;;5039336;28;20040;-86
2022/06/05 03:15:34;;;;;;;49.53;29.40;;;15.50;99.90;;;;;;5035868;28;20029;-86
2022/06/05 03:18:00;;;;;;;54.08;29.02;;;15.50;99.90;;;;;;5033094;28;20033;-86
2022/06/05 03:20:26;;;;;;;64.78;29.42;;;15.50;99.90;;;;;;5034526;28;20017;-85
2022/06/05 03:22:53;;;;;;;53.58;29.88;;;15.50;99.90;;;;;;5030745;28;20025;-86
2022/06/05 03:25:21;;;;;;;56.20;28.25;;;15.50;99.90;;;;;;5031416;28;20029;-85
2022/06/05 03:27:47;;;;;;;51.05;28.27;;;15.50;99.90;;;;;;5028845;28;20919;-86
2022/06/05 03:30:14;;;;;;;47.55;28.65;;;15.60;99.90;;;;;;5029826;28;20539;-86
2022/06/05 03:32:40;;;;;;;51.08;28.35;;;15.70;99.90;;;;;;5039225;28;20025;-86
2022/06/05 03:35:06;;;;;;;59.35;31.10;;;15.70;99.90;;;;;;5042028;28;20021;-86
2022/06/05 03:37:32;;;;;;;54.72;29.55;;;15.70;99.90;;;;;;5041167;28;20483;-86
2022/06/05 03:39:58;;;;;;;53.35;29.05;;;15.70;99.90;;;;;;5039038;28;20033;-86
2022/06/05 03:42:24;;;;;;;52.03;27.58;;;15.70;99.90;;;;;;5030778;28;20396;-87
2022/06/05 03:44:50;;;;;;;55.10;28.50;;;15.70;99.90;;;;;;5038056;28;20032;-85
2022/06/05 03:47:16;;;;;;;54.72;29.38;;;15.70;99.90;;;;;;5035713;28;20030;-85
2022/06/05 03:49:42;;;;;;;55.30;27.38;;;15.70;99.90;;;;;;5028578;28;20481;-86
2022/06/05 03:52:10;;;;;;;50.38;28.77;;;15.70;99.90;;;;;;5013361;28;20033;-87
2022/06/05 03:54:36;;;;;;;54.60;26.35;;;15.70;99.90;;;;;;5029084;28;20541;-87
2022/06/05 03:57:04;;;;;;;52.53;27.52;;;15.70;99.90;;;;;;5027304;28;20033;-87
2022/06/05 03:59:29;;;;;;;59.08;31.08;;;15.70;99.90;;;;;;5024804;28;20368;-86
2022/06/05 04:01:55;;;;;;;60.10;31.38;;;15.70;99.90;;;;;;5041755;28;20528;-87
2022/06/05 04:04:21;;;;;;;52.72;28.75;;;15.70;99.90;;;;;;5042519;28;20543;-86
2022/06/05 04:06:48;;;;;;;59.50;34.53;;;15.70;99.90;;;;;;5038166;28;20042;-86
2022/06/05 04:09:14;;;;;;;52.22;29.33;;;15.60;99.90;;;;;;5040010;28;20181;-86
2022/06/05 04:11:40;;;;;;;58.97;31.55;;;15.70;99.90;;;;;;5037843;28;20036;-86
2022/06/05 04:14:07;;;;;;;60.58;31.23;;;15.70;99.90;;;;;;5035445;28;20033;-86
2022/06/05 04:16:35;;;;;;;64.35;34.78;;;15.70;99.90;;;;;;5017503;28;20109;-86
2022/06/05 04:19:02;;;;;;;63.13;32.88;;;15.70;99.90;;;;;;5032746;28;20044;-86
2022/06/05 04:21:30;;;;;;;65.20;34.42;;;15.70;99.90;;;;;;5031023;28;20033;-86
2022/06/05 04:23:57;;;;;;;61.70;33.30;;;15.80;99.90;;;;;;5029540;28;20108;-86
2022/06/05 04:26:29;;;;;;;62.95;32.05;;;15.80;99.90;;;;;;5027908;28;20032;-86
2022/06/05 04:28:55;;;;;;;65.90;36.03;;;15.90;99.90;;;;;;5029758;28;20087;-86
2022/06/05 04:31:25;;;;;;;71.95;35.17;;;15.80;99.90;;;;;;5039316;28;20037;-86
2022/06/05 04:33:53;;;;;;;66.00;34.63;;;15.90;99.90;;;;;;5041207;28;20025;-85
2022/06/05 04:36:18;;;;;;;59.20;33.58;;;15.90;99.90;;;;;;5037649;28;20283;-86
2022/06/05 04:38:45;;;;;;;67.22;35.08;;;16.00;99.90;;;;;;5038959;28;20090;-86
2022/06/05 04:41:12;;;;;;;59.97;34.03;;;16.00;99.90;;;;;;5033811;28;20033;-86
2022/06/05 04:43:38;;;;;;;67.55;36.55;;;16.00;99.90;;;;;;5035006;28;20087;-86
2022/06/05 04:46:04;;;;;;;61.28;32.97;;;16.00;99.90;;;;;;5031194;28;20033;-86
2022/06/05 04:48:30;;;;;;;81.10;37.20;;;16.00;99.90;;;;;;5032395;28;20025;-87
2022/06/05 04:50:55;;;;;;;73.13;34.65;;;16.10;99.90;;;;;;5033517;28;20324;-86
2022/06/05 04:53:21;;;;;;;72.50;36.50;;;16.10;99.90;;;;;;5028360;28;20033;-86
2022/06/05 04:55:47;;;;;;;69.82;36.47;;;16.00;99.90;;;;;;5012714;28;20132;-86
2022/06/05 04:58:12;;;;;;;81.85;39.35;;;16.10;99.90;;;;;;5027998;28;20064;-85
2022/06/05 05:00:39;;;;;;;77.38;38.63;;;16.20;99.90;;;;;;5035688;28;20045;-86
2022/06/05 05:03:05;;;;;;;78.60;38.60;;;16.10;99.90;;;;;;5039937;28;20480;-86
2022/06/05 05:05:32;;;;;;;75.00;38.97;;;16.00;99.90;;;;;;5035039;28;20043;-86
2022/06/05 05:07:58;;;;;;;74.18;38.08;;;16.00;99.90;;;;;;5037690;28;20108;-85
2022/06/05 05:10:24;;;;;;;79.53;43.47;;;16.00;99.90;;;;;;5031116;28;20109;-86
2022/06/05 05:12:49;;;;;;;67.07;37.35;;;16.00;99.90;;;;;;5034513;28;20025;-87
2022/06/05 05:15:15;;;;;;;85.85;39.30;;;16.30;99.90;;;;;;5033925;28;20029;-86
2022/06/05 05:17:41;;;;;;;73.40;40.17;;;16.30;99.90;;;;;;5032783;28;20037;-86
2022/06/05 05:20:07;;;;;;;63.25;35.58;;;16.20;99.90;;;;;;5036085;28;20492;-86
2022/06/05 05:22:37;;;;;;;63.30;35.97;;;16.30;99.90;;;;;;5023993;28;20531;-86
2022/06/05 05:25:05;;;;;;;71.68;42.33;;;16.30;99.90;;;;;;5033070;28;20672;-86
2022/06/05 05:27:31;;;;;;;65.20;35.50;;;16.20;99.90;;;;;;5009255;28;20041;-85
2022/06/05 05:29:57;;;;;;;61.00;32.70;;;16.20;99.90;;;;;;5033789;28;20052;-88
2022/06/05 05:32:22;;;;;;;58.10;32.03;;;16.30;99.90;;;;;;5041115;28;20487;-86
2022/06/05 05:34:48;;;;;;;80.40;36.53;;;16.50;99.90;;;;;;5039070;28;20485;-86
2022/06/05 05:37:13;;;;;;;134.40;46.53;;;16.00;99.90;;;;;;5031151;28;20048;-87
2022/06/05 05:42:23;;;;;;;63.50;33.00;;;15.70;99.90;;;;;;5030166;28;20083;-88
2022/06/05 05:44:51;;;;;;;71.85;33.15;;;15.80;99.90;;;;;;5045802;28;20026;-87
2022/06/05 05:47:23;;;;;;;53.92;26.05;;;15.80;99.90;;;;;;5034103;28;20037;-86
2022/06/05 05:49:54;;;;;;;54.38;29.33;;;15.80;99.90;;;;;;5032449;28;20029;-87
2022/06/05 05:52:20;;;;;;;;;;;15.80;99.90;;;;;;5031234;28;20029;-86
2022/06/05 05:54:46;;;;;;;47.97;23.00;;;15.70;99.90;;;;;;5026059;28;20250;-87
2022/06/05 05:57:11;;;;;;;38.25;16.05;;;15.70;99.90;;;;;;5021553;28;20080;-87
2022/06/05 05:59:37;;;;;;;31.58;14.90;;;15.50;99.90;;;;;;5012390;28;20052;-86
2022/06/05 06:02:06;;;;;;;28.35;14.43;;;15.40;99.90;;;;;;5037799;28;20445;-87
2022/06/05 06:04:31;;;;;;;23.13;11.20;;;15.40;99.90;;;;;;5040001;28;20029;-86
2022/06/05 06:06:57;;;;;;;22.55;8.95;;;15.30;99.90;;;;;;5040260;28;20040;-86
2022/06/05 06:09:23;;;;;;;18.80;9.90;;;15.10;99.90;;;;;;5039110;28;20134;-87
2022/06/05 06:11:49;;;;;;;13.57;6.65;;;15.10;99.90;;;;;;5041894;28;20036;-87
2022/06/05 06:14:14;;;;;;;16.05;6.13;;;14.90;99.90;;;;;;5037605;28;20580;-87
2022/06/05 06:16:40;;;;;;;17.63;7.80;;;14.90;99.90;;;;;;5034242;28;20501;-86
2022/06/05 06:19:06;;;;;;;10.50;5.80;;;15.00;99.90;;;;;;5037224;28;20118;-86
2022/06/05 06:21:33;;;;;;;13.68;5.57;;;15.00;99.90;;;;;;5028627;28;20116;-85
2022/06/05 06:23:59;;;;;;;12.05;5.88;;;15.10;99.90;;;;;;5032416;28;20033;-86
2022/06/05 06:26:24;;;;;;;13.60;6.35;;;15.10;99.90;;;;;;5029617;28;20033;-86
2022/06/05 06:28:50;;;;;;;12.98;6.30;;;15.00;99.90;;;;;;5030049;28;20511;-87
2022/06/05 06:31:17;;;;;;;20.30;6.40;;;15.00;99.90;;;;;;5027470;28;20108;-87
2022/06/05 06:33:45;;;;;;;11.18;5.60;;;15.10;99.90;;;;;;5045891;28;20025;-86
2022/06/05 06:36:12;;;;;;;9.15;4.40;;;15.20;99.90;;;;;;5035596;28;20037;-86
2022/06/05 06:38:40;;;;;;;18.00;5.65;;;15.20;99.90;;;;;;5033506;28;20029;-86
2022/06/05 06:41:12;;;;;;;8.63;4.53;;;15.30;99.90;;;;;;5035854;28;20111;-86
2022/06/05 06:43:38;;;;;;;11.32;5.40;;;15.40;99.90;;;;;;5020973;28;20040;-86
2022/06/05 06:46:04;;;;;;;11.15;5.80;;;15.50;99.90;;;;;;5034617;28;20033;-86
2022/06/05 06:48:31;;;;;;;14.57;6.20;;;15.50;99.90;;;;;;5025694;28;20022;-86
2022/06/05 06:50:59;;;;;;;12.93;5.97;;;15.60;99.90;;;;;;5025823;28;20152;-86
2022/06/05 06:53:26;;;;;;;11.32;5.63;;;15.70;99.90;;;;;;5031848;28;20119;-87
2022/06/05 06:55:52;;;;;;;9.13;5.45;;;15.60;99.90;;;;;;5030651;28;20112;-87
2022/06/05 06:58:18;;;;;;;12.20;5.20;;;15.70;99.90;;;;;;5007399;28;20029;-87
2022/06/05 07:00:44;;;;;;;14.00;5.50;;;15.60;99.90;;;;;;5037309;28;20046;-86
2022/06/05 07:03:10;;;;;;;12.35;5.53;;;15.50;99.90;;;;;;5037957;28;20052;-87
2022/06/05 07:05:37;;;;;;;8.63;5.38;;;15.60;99.90;;;;;;5016373;28;20033;-86
2022/06/05 07:08:04;;;;;;;11.75;5.78;;;15.80;99.90;;;;;;5038228;28;20028;-86
2022/06/05 07:10:29;;;;;;;9.77;5.80;;;16.00;99.90;;;;;;5036793;28;20021;-86
2022/06/05 07:12:55;;;;;;;8.95;5.45;;;16.30;99.90;;;;;;5036233;28;20382;-86
2022/06/05 07:15:21;;;;;;;10.73;5.50;;;16.50;99.90;;;;;;5035738;28;20358;-86
2022/06/05 07:17:47;;;;;;;12.38;5.97;;;16.60;99.90;;;;;;5036573;28;20045;-87
2022/06/05 07:20:13;;;;;;;9.48;5.50;;;16.90;99.90;;;;;;5032433;28;20080;-86
2022/06/05 07:22:39;;;;;;;9.63;5.22;;;16.80;99.90;;;;;;5031856;28;20037;-86
2022/06/05 07:25:05;;;;;;;8.27;4.60;;;17.00;99.90;;;;;;5010943;28;20588;-87
2022/06/05 07:27:31;;;;;;;9.15;5.25;;;17.00;99.90;;;;;;5027212;28;20083;-86
2022/06/05 07:29:57;;;;;;;7.25;4.68;;;17.10;99.90;;;;;;5033629;28;20384;-86
2022/06/05 07:32:23;;;;;;;10.18;5.50;;;17.20;99.90;;;;;;5039599;28;20037;-87
2022/06/05 07:34:49;;;;;;;12.55;5.75;;;17.50;99.90;;;;;;5039273;28;20120;-86
2022/06/05 07:37:15;;;;;;;7.63;4.75;;;17.20;99.90;;;;;;5039897;28;20121;-85
2022/06/05 07:39:42;;;;;;;7.50;4.75;;;17.50;99.90;;;;;;5040791;28;20040;-84
2022/06/05 07:42:08;;;;;;;8.25;4.63;;;17.50;99.90;;;;;;5037901;28;20103;-85
2022/06/05 07:44:36;;;;;;;9.95;4.68;;;17.50;99.90;;;;;;5031471;28;20036;-86
2022/06/05 07:47:06;;;;;;;6.45;4.22;;;17.60;99.90;;;;;;5033689;28;20020;-85
2022/06/05 07:49:34;;;;;;;7.53;4.90;;;17.70;99.90;;;;;;5032880;28;20032;-85
2022/06/05 07:55:02;;;;;;;6.93;4.30;;;17.80;99.90;;;;;;4984751;28;20802;-85
2022/06/05 07:57:28;;;;;;;12.63;4.18;;;18.10;99.90;;;;;;5047002;28;20109;-85
2022/06/05 07:59:53;;;;;;;5.93;4.35;;;18.10;99.90;;;;;;5023775;28;20053;-85
2022/06/05 08:02:23;;;;;;;6.00;3.58;;;18.10;99.90;;;;;;5042892;28;20030;-85
2022/06/05 08:04:50;;;;;;;11.68;4.30;;;18.70;99.90;;;;;;5023832;28;20041;-86
2022/06/05 08:07:19;;;;;;;6.47;3.97;;;18.60;99.90;;;;;;5036018;28;20492;-85
2022/06/05 08:09:46;;;;;;;6.03;3.40;;;18.70;99.90;;;;;;5039884;28;20083;-85
2022/06/05 08:12:14;;;;;;;13.52;3.33;;;18.50;99.90;;;;;;5034120;28;20057;-85
2022/06/05 08:14:41;;;;;;;5.50;3.33;;;18.80;99.90;;;;;;5033349;28;20028;-84
2022/06/05 08:17:10;;;;;;;4.90;3.83;;;19.60;99.90;;;;;;5029532;28;20039;-85
2022/06/05 08:19:38;;;;;;;5.07;3.75;;;19.60;99.90;;;;;;5034787;28;20029;-85
2022/06/05 08:22:05;;;;;;;6.43;3.95;;;19.50;99.90;;;;;;5031120;28;20026;-84
2022/06/05 08:24:30;;;;;;;6.30;3.80;;;19.60;99.90;;;;;;5031342;28;20029;-85
2022/06/05 08:26:56;;;;;;;7.03;4.07;;;19.80;99.90;;;;;;5043166;28;20556;-85
2022/06/05 08:29:22;;;;;;;8.13;3.75;;;20.10;99.90;;;;;;5031722;28;20061;-85
2022/06/05 08:31:48;;;;;;;6.22;3.38;;;20.10;99.90;;;;;;5035291;28;20047;-85
2022/06/05 08:34:14;;;;;;;8.73;3.65;;;20.50;99.90;;;;;;5024765;28;20028;-85
2022/06/05 08:36:40;;;;;;;5.57;4.05;;;20.70;99.90;;;;;;5038376;28;20037;-86
2022/06/05 08:42:09;;;;;;;6.25;3.80;;;21.10;99.90;;;;;;5034127;28;20479;-85
2022/06/05 08:45:04;;;;;;;5.47;3.55;;;21.10;99.90;;;;;;5031183;28;20021;-85
2022/06/05 08:47:36;;;;;;;5.03;3.72;;;21.60;99.90;;;;;;5029215;28;20029;-84
2022/06/05 08:50:06;;;;;;;8.05;4.20;;;21.10;99.90;;;;;;5027110;28;20025;-86
2022/06/05 08:52:50;;;;;;;6.50;4.00;;;21.00;99.90;;;;;;5025330;28;20014;-85
2022/06/05 08:55:42;;;;;;;8.02;3.40;;;21.00;99.90;;;;;;5044442;28;20022;-85
2022/06/05 08:58:15;;;;;;;4.55;3.22;;;21.40;99.90;;;;;;5024104;28;20030;-86
2022/06/05 09:00:49;;;;;;;7.93;2.90;;;21.30;99.90;;;;;;5038441;28;20052;-85
2022/06/05 09:03:24;;;;;;;4.57;3.20;;;21.90;99.90;;;;;;5043374;28;20021;-86
2022/06/05 09:05:55;;;;;;;7.78;3.40;;;21.90;99.90;;;;;;5040250;28;20037;-86
2022/06/05 09:08:28;;;;;;;5.90;3.20;;;21.30;99.90;;;;;;5019370;28;20037;-86
2022/06/05 09:11:22;;;;;;;6.65;3.55;;;21.40;99.90;;;;;;5019502;28;20029;-86
2022/06/05 09:13:51;;;;;;;5.22;2.83;;;21.60;99.90;;;;;;5055158;28;20038;-86
2022/06/05 09:16:42;;;;;;;3.90;3.30;;;22.20;99.90;;;;;;5034269;28;20453;-86
2022/06/05 09:19:15;;;;;;;6.47;2.97;;;22.20;99.90;;;;;;5016777;28;20037;-86
2022/06/05 09:21:52;;;;;;;4.47;2.85;;;22.70;98.70;;;;;;5010516;28;20091;-86
2022/06/05 09:24:34;;;;;;;4.63;3.50;;;23.60;98.60;;;;;;5027787;28;20268;-85
2022/06/05 09:27:07;;;;;;;7.28;3.42;;;23.70;94.60;;;;;;5022710;28;20061;-87
2022/06/05 09:29:44;;;;;;;5.60;3.10;;;23.10;95.60;;;;;;5038714;28;20476;-86
2022/06/05 09:32:47;;;;;;;4.32;2.85;;;22.60;97.10;;;;;;5031835;28;20037;-87
2022/06/05 09:35:17;;;;;;;4.25;3.20;;;22.50;96.60;;;;;;5037779;28;20032;-85
2022/06/05 09:37:52;;;;;;;3.63;2.70;;;22.50;97.30;;;;;;5036692;28;20099;-86
2022/06/05 09:40:34;;;;;;;9.18;3.33;;;22.00;95.30;;;;;;5020541;28;20037;-85
2022/06/05 09:43:15;;;;;;;3.92;3.00;;;22.00;99.90;;;;;;5032276;28;20032;-85
2022/06/05 09:45:41;;;;;;;4.03;2.97;;;22.10;98.70;;;;;;5036325;28;20033;-86
2022/06/05 09:48:30;;;;;;;3.55;2.92;;;22.00;95.60;;;;;;5041696;28;20349;-86
2022/06/05 09:50:56;;;;;;;4.78;3.03;;;22.40;97.80;;;;;;5034465;28;20075;-86
2022/06/05 09:53:27;;;;;;;6.95;3.10;;;22.70;96.10;;;;;;5016502;28;20504;-85
2022/06/05 09:56:17;;;;;;;4.57;2.97;;;22.80;91.90;;;;;;5029161;28;20037;-86
2022/06/05 09:59:12;;;;;;;4.93;3.03;;;23.10;92.60;;;;;;5037062;28;20052;-86
2022/06/05 10:01:50;;;;;;;3.97;3.00;;;23.50;89.30;;;;;;5031252;28;20826;-87
2022/06/05 10:04:19;;;;;;;5.10;2.80;;;23.10;88.30;;;;;;5039568;28;20631;-87
2022/06/05 10:06:56;;;;;;;6.72;3.40;;;22.50;91.20;;;;;;5039364;28;20041;-85
2022/06/05 10:09:27;;;;;;;4.60;3.10;;;23.10;90.10;;;;;;5038299;28;20493;-85
2022/06/05 10:12:11;;;;;;;4.68;3.20;;;23.80;90.10;;;;;;5038902;28;20052;-85
2022/06/05 10:15:03;;;;;;;3.40;3.00;;;23.80;82.00;;;;;;5036985;28;20489;-86
2022/06/05 10:17:47;;;;;;;4.15;3.20;;;24.30;84.50;;;;;;5034670;28;20185;-85
2022/06/05 10:20:15;;;;;;;6.53;3.55;;;24.30;91.80;;;;;;5030864;28;20084;-86
2022/06/05 10:22:58;;;;;;;8.02;3.35;;;24.60;83.60;;;;;;5034593;28;20068;-85
2022/06/05 10:25:49;;;;;;;5.55;3.38;;;24.60;83.70;;;;;;5030966;28;20504;-84
2022/06/05 10:28:25;;;;;;;7.82;3.00;;;25.50;78.50;;;;;;5035458;28;20029;-85
2022/06/05 10:30:58;;;;;;;3.85;2.92;;;25.50;73.30;;;;;;5041347;28;20126;-86
2022/06/05 10:33:44;;;;;;;4.82;3.20;;;26.00;71.60;;;;;;5043462;28;20523;-88
2022/06/05 10:36:17;;;;;;;5.32;2.92;;;26.60;70.40;;;;;;5042177;28;20032;-85
2022/06/05 10:39:22;;;;;;;5.25;3.00;;;26.30;66.30;;;;;;5020370;28;20029;-85
2022/06/05 10:41:54;;;;;;;4.82;3.38;;;26.60;68.10;;;;;;5036280;28;20033;-86
2022/06/05 10:44:45;;;;;;;7.13;3.60;;;27.30;64.30;;;;;;5034578;28;20022;-87
2022/06/05 10:47:14;;;;;;;4.70;4.00;;;27.80;65.30;;;;;;5035741;28;20033;-86
2022/06/05 10:49:46;;;;;;;4.50;3.85;;;26.70;62.70;;;;;;5025690;28;20032;-86
2022/06/05 10:52:15;;;;;;;5.70;3.83;;;26.00;65.60;;;;;;5027974;28;20022;-86
2022/06/05 10:54:59;;;;;;;5.00;3.25;;;26.60;68.50;;;;;;5028319;28;20123;-86
2022/06/05 10:57:36;;;;;;;4.03;3.35;;;26.70;65.20;;;;;;5030743;28;20171;-86
2022/06/05 11:00:05;;;;;;;5.43;3.97;;;25.80;64.50;;;;;;5046058;28;20095;-86
2022/06/05 11:03:19;;;;;;;6.18;3.55;;;25.40;63.90;;;;;;5040910;28;20523;-86
2022/06/05 11:05:54;;;;;;;5.28;3.80;;;24.60;67.90;;;;;;5018916;28;20083;-86
2022/06/05 11:08:42;;;;;;;5.25;3.90;;;23.40;73.60;;;;;;5038062;28;20116;-86
2022/06/05 11:14:48;;;;;;;5.65;3.92;;;22.80;82.40;;;;;;5035803;28;20151;-86
2022/06/05 11:17:52;;;;;;;5.28;4.03;;;22.40;89.70;;;;;;5027602;28;20025;-86
2022/06/05 11:20:21;;;;;;;5.35;3.83;;;22.10;91.30;;;;;;5027804;28;20032;-86
2022/06/05 11:23:00;;;;;;;9.03;4.20;;;22.00;91.50;;;;;;5027958;28;20037;-86
2022/06/05 11:25:33;;;;;;;7.55;4.20;;;21.60;94.10;;;;;;5027744;28;20036;-86
2022/06/05 11:28:23;;;;;;;9.55;4.40;;;21.60;93.10;;;;;;5031027;28;20092;-86
2022/06/05 11:31:30;;;;;;;8.65;4.50;;;21.60;93.70;;;;;;5038771;28;20489;-86
2022/06/05 11:34:17;;;;;;;8.32;4.93;;;21.30;94.20;;;;;;5038023;28;20825;-86
2022/06/05 11:36:51;;;;;;;7.22;4.88;;;21.00;98.70;;;;;;5039097;28;20037;-86
2022/06/05 11:39:35;;;;;;;8.27;6.30;;;20.70;99.90;;;;;;5036601;28;20060;-86
2022/06/05 11:42:13;;;;;;;12.20;5.88;;;20.20;99.90;;;;;;5036962;28;20115;-86
2022/06/05 11:44:54;;;;;;;8.20;5.00;;;19.70;99.90;;;;;;5034437;28;20029;-86
2022/06/05 11:47:36;;;;;;;12.75;6.82;;;19.10;99.90;;;;;;5034438;28;20022;-85
2022/06/05 11:50:16;;;;;;;12.25;5.85;;;18.40;99.90;;;;;;5030210;28;20148;-86
2022/06/05 11:53:19;;;;;;;19.48;7.82;;;18.00;99.90;;;;;;5039789;28;20025;-85
2022/06/05 11:55:56;;;;;;;11.20;6.65;;;17.90;99.90;;;;;;5026547;28;20052;-84
2022/06/05 11:58:35;;;;;;;16.67;7.50;;;17.80;99.90;;;;;;5041300;28;20040;-85
2022/06/05 12:01:08;;;;;;;16.00;7.55;;;18.00;99.90;;;;;;5042446;28;20049;-85
2022/06/05 12:03:49;;;;;;;14.27;7.47;;;17.90;99.90;;;;;;5031717;28;20028;-85
2022/06/05 12:06:21;;;;;;;13.48;7.22;;;18.00;99.90;;;;;;5036891;28;20124;-84
2022/06/05 12:08:51;;;;;;;14.55;7.18;;;17.80;99.90;;;;;;5038448;28;20022;-84
2022/06/05 12:11:24;;;;;;;15.90;8.13;;;17.80;99.90;;;;;;5018950;28;20096;-85
2022/06/05 12:14:14;;;;;;;13.75;7.90;;;17.70;99.90;;;;;;5034832;28;20033;-85
2022/06/05 12:17:03;;;;;;;11.75;7.18;;;17.90;99.90;;;;;;5031302;28;20330;-85
2022/06/05 12:19:44;;;;;;;13.60;7.77;;;18.00;99.90;;;;;;5030899;28;20376;-85
2022/06/05 12:22:25;;;;;;;16.35;9.02;;;17.90;99.90;;;;;;5026279;28;20104;-85
2022/06/05 12:24:55;;;;;;;12.55;7.68;;;17.80;99.90;;;;;;5025331;28;20076;-85
2022/06/05 12:27:20;;;;;;;13.77;7.30;;;18.00;99.90;;;;;;5029213;28;20495;-85
2022/06/05 12:30:05;;;;;;;11.70;8.02;;;17.90;99.90;;;;;;5042426;28;20044;-85
2022/06/05 12:32:40;;;;;;;12.10;7.25;;;18.10;99.90;;;;;;5073135;28;20029;-86
2022/06/05 12:35:14;;;;;;;14.38;7.43;;;18.20;99.90;;;;;;5034567;28;20021;-86
2022/06/05 12:37:55;;;;;;;12.70;7.90;;;18.00;99.90;;;;;;5030891;28;20025;-86
2022/06/05 12:40:31;;;;;;;14.52;7.35;;;17.90;99.90;;;;;;5033098;28;20079;-85
2022/06/05 12:43:08;;;;;;;14.23;7.10;;;17.90;99.90;;;;;;5029723;28;20024;-85
2022/06/05 12:45:38;;;;;;;13.50;6.60;;;18.00;99.90;;;;;;5031442;28;20025;-85
2022/06/05 12:48:19;;;;;;;13.70;7.72;;;18.00;99.90;;;;;;5030196;28;20021;-84
2022/06/05 12:51:12;;;;;;;8.98;5.53;;;18.10;99.90;;;;;;5024833;28;20397;-84
2022/06/05 12:53:53;;;;;;;16.02;8.00;;;18.00;99.90;;;;;;5024635;28;20025;-84
2022/06/05 12:56:53;;;;;;;11.18;7.53;;;18.10;99.90;;;;;;5022770;28;20030;-85
2022/06/05 12:59:23;;;;;;;12.27;8.05;;;18.20;99.90;;;;;;5042702;28;20049;-85
2022/06/05 13:01:59;;;;;;;15.18;9.10;;;18.10;99.90;;;;;;5060606;28;20548;-86
2022/06/05 13:04:41;;;;;;;14.80;9.60;;;18.10;99.90;;;;;;5036065;28;20040;-86
2022/06/05 13:07:27;;;;;;;13.77;8.65;;;18.00;99.90;;;;;;5038221;28;20044;-85
2022/06/05 13:10:01;;;;;;;9.60;6.78;;;17.80;99.90;;;;;;5036292;28;20029;-85
2022/06/05 13:12:40;;;;;;;9.48;6.28;;;17.70;99.90;;;;;;5031098;28;20026;-86
2022/06/05 13:15:17;;;;;;;9.10;4.90;;;17.60;99.90;;;;;;5029203;28;20025;-86
2022/06/05 13:17:49;;;;;;;8.10;5.30;;;17.60;99.90;;;;;;5049431;28;20029;-86
2022/06/05 13:20:24;;;;;;;9.82;5.63;;;17.40;99.90;;;;;;5026829;28;20029;-85